sensor_id;sensor_type;location;lat;lon;timestamp;P1;durP1;ratioP1;P2;durP2;ratioP2
68858;SDS011;55864;49.238;8.092;2022-12-31T00:01:52;3.47;;;1.30;;
68858;SDS011;55864;49.238;8.092;2022-12-31T00:03:53;5.20;;;1.30;;
68858;SDS011;55864;49.238;8.092;2022-12-31T00:05:54;4.30;;;1.30;;
68858;SDS011;55864;49.238;8.092;2022-12-31T00:07:54;3.97;;;1.40;;
68858;SDS011;55864;49.238;8.092;2022-12-31T00:09:55;4.18;;;1.60;;
68858;SDS011;55864;49.238;8.092;2022-12-31T00:11:55;5.53;;;1.90;;
68858;SDS011;55864;49.238;8.092;2022-12-31T00:13:57;6.43;;;2.30;;
68858;SDS011;55864;49.238;8.092;2022-12-31T00:16:04;9.80;;;3.17;;
68858;SDS011;55864;49.238;8.092;2022-12-31T00:18:05;6.93;;;2.10;;
68858;SDS011;55864;49.238;8.092;2022-12-31T00:20:06;8.93;;;2.28;;
68858;SDS011;55864;49.238;8.092;2022-12-31T00:22:07;5.78;;;1.70;;
68858;SDS011;55864;49.238;8.092;2022-12-31T00:24:09;5.55;;;1.90;;
68858;SDS011;55864;49.238;8.092;2022-12-31T00:26:11;5.90;;;2.00;;
68858;SDS011;55864;49.238;8.092;2022-12-31T00:28:12;4.97;;;1.73;;
68858;SDS011;55864;49.238;8.092;2022-12-31T00:30:14;6.65;;;1.80;;
68858;SDS011;55864;49.238;8.092;2022-12-31T00:32:15;4.75;;;1.50;;
68858;SDS011;55864;49.238;8.092;2022-12-31T00:34:16;5.83;;;1.83;;
68858;SDS011;55864;49.238;8.092;2022-12-31T00:36:18;4.90;;;1.75;;
68858;SDS011;55864;49.238;8.092;2022-12-31T00:38:20;3.85;;;1.40;;
68858;SDS011;55864;49.238;8.092;2022-12-31T00:40:20;4.93;;;1.60;;
68858;SDS011;55864;49.238;8.092;2022-12-31T00:42:21;3.88;;;1.40;;
68858;SDS011;55864;49.238;8.092;2022-12-31T00:44:21;5.35;;;1.60;;
68858;SDS011;55864;49.238;8.092;2022-12-31T00:46:23;5.03;;;1.88;;
68858;SDS011;55864;49.238;8.092;2022-12-31T00:48:24;6.15;;;1.65;;
68858;SDS011;55864;49.238;8.092;2022-12-31T00:50:25;4.78;;;1.60;;
68858;SDS011;55864;49.238;8.092;2022-12-31T00:52:25;4.97;;;1.60;;
68858;SDS011;55864;49.238;8.092;2022-12-31T00:54:26;3.10;;;1.23;;
68858;SDS011;55864;49.238;8.092;2022-12-31T00:56:27;3.67;;;1.30;;
68858;SDS011;55864;49.238;8.092;2022-12-31T00:58:28;3.75;;;1.40;;
68858;SDS011;55864;49.238;8.092;2022-12-31T01:00:29;4.00;;;1.35;;
68858;SDS011;55864;49.238;8.092;2022-12-31T01:02:31;3.55;;;1.35;;
68858;SDS011;55864;49.238;8.092;2022-12-31T01:04:32;7.00;;;1.50;;
68858;SDS011;55864;49.238;8.092;2022-12-31T01:06:32;4.65;;;1.40;;
68858;SDS011;55864;49.238;8.092;2022-12-31T01:08:33;3.45;;;1.30;;
68858;SDS011;55864;49.238;8.092;2022-12-31T01:10:34;4.45;;;1.40;;
68858;SDS011;55864;49.238;8.092;2022-12-31T01:12:35;5.00;;;1.40;;
68858;SDS011;55864;49.238;8.092;2022-12-31T01:14:35;4.15;;;1.42;;
68858;SDS011;55864;49.238;8.092;2022-12-31T01:16:36;13.82;;;5.25;;
68858;SDS011;55864;49.238;8.092;2022-12-31T01:18:39;4.33;;;1.40;;
68858;SDS011;55864;49.238;8.092;2022-12-31T01:20:41;4.53;;;1.60;;
68858;SDS011;55864;49.238;8.092;2022-12-31T01:22:57;3.40;;;1.30;;
68858;SDS011;55864;49.238;8.092;2022-12-31T01:24:58;3.47;;;1.27;;
68858;SDS011;55864;49.238;8.092;2022-12-31T01:26:58;3.28;;;1.35;;
68858;SDS011;55864;49.238;8.092;2022-12-31T01:28:59;3.47;;;1.45;;
68858;SDS011;55864;49.238;8.092;2022-12-31T01:31:02;4.03;;;1.30;;
68858;SDS011;55864;49.238;8.092;2022-12-31T01:33:03;4.05;;;1.30;;
68858;SDS011;55864;49.238;8.092;2022-12-31T01:35:05;4.70;;;1.30;;
68858;SDS011;55864;49.238;8.092;2022-12-31T01:37:06;4.90;;;1.60;;
68858;SDS011;55864;49.238;8.092;2022-12-31T01:39:07;8.10;;;1.30;;
68858;SDS011;55864;49.238;8.092;2022-12-31T01:41:09;4.55;;;1.67;;
68858;SDS011;55864;49.238;8.092;2022-12-31T01:43:12;4.38;;;1.35;;
68858;SDS011;55864;49.238;8.092;2022-12-31T01:45:16;4.13;;;1.27;;
68858;SDS011;55864;49.238;8.092;2022-12-31T01:47:17;4.55;;;1.30;;
68858;SDS011;55864;49.238;8.092;2022-12-31T01:49:25;4.88;;;1.30;;
68858;SDS011;55864;49.238;8.092;2022-12-31T01:51:32;5.72;;;1.33;;
68858;SDS011;55864;49.238;8.092;2022-12-31T01:53:34;6.45;;;1.80;;
68858;SDS011;55864;49.238;8.092;2022-12-31T01:55:36;3.75;;;1.38;;
68858;SDS011;55864;49.238;8.092;2022-12-31T01:57:44;3.85;;;1.20;;
68858;SDS011;55864;49.238;8.092;2022-12-31T01:59:47;3.95;;;1.30;;
68858;SDS011;55864;49.238;8.092;2022-12-31T02:01:48;3.83;;;1.10;;
68858;SDS011;55864;49.238;8.092;2022-12-31T02:03:50;6.55;;;1.30;;
68858;SDS011;55864;49.238;8.092;2022-12-31T02:05:52;3.83;;;1.35;;
68858;SDS011;55864;49.238;8.092;2022-12-31T02:07:58;4.05;;;1.23;;
68858;SDS011;55864;49.238;8.092;2022-12-31T02:09:58;5.35;;;1.20;;
68858;SDS011;55864;49.238;8.092;2022-12-31T02:11:59;5.93;;;1.60;;
68858;SDS011;55864;49.238;8.092;2022-12-31T02:14:01;3.75;;;1.20;;
68858;SDS011;55864;49.238;8.092;2022-12-31T02:16:06;5.15;;;1.48;;
68858;SDS011;55864;49.238;8.092;2022-12-31T02:18:14;3.22;;;1.13;;
68858;SDS011;55864;49.238;8.092;2022-12-31T02:20:28;3.42;;;1.27;;
68858;SDS011;55864;49.238;8.092;2022-12-31T02:22:51;2.28;;;1.00;;
68858;SDS011;55864;49.238;8.092;2022-12-31T02:25:20;4.30;;;1.20;;
68858;SDS011;55864;49.238;8.092;2022-12-31T02:27:37;4.13;;;1.10;;
68858;SDS011;55864;49.238;8.092;2022-12-31T02:29:57;4.70;;;1.25;;
68858;SDS011;55864;49.238;8.092;2022-12-31T02:32:06;3.17;;;1.08;;
68858;SDS011;55864;49.238;8.092;2022-12-31T02:34:14;3.50;;;1.27;;
68858;SDS011;55864;49.238;8.092;2022-12-31T02:36:19;3.55;;;1.15;;
68858;SDS011;55864;49.238;8.092;2022-12-31T02:38:23;4.07;;;1.40;;
68858;SDS011;55864;49.238;8.092;2022-12-31T02:40:26;4.35;;;1.38;;
68858;SDS011;55864;49.238;8.092;2022-12-31T02:42:27;3.45;;;1.40;;
68858;SDS011;55864;49.238;8.092;2022-12-31T02:44:28;3.58;;;1.30;;
68858;SDS011;55864;49.238;8.092;2022-12-31T02:46:33;3.00;;;1.20;;
68858;SDS011;55864;49.238;8.092;2022-12-31T02:48:43;3.08;;;1.20;;
68858;SDS011;55864;49.238;8.092;2022-12-31T02:50:50;5.72;;;1.50;;
68858;SDS011;55864;49.238;8.092;2022-12-31T02:53:02;3.38;;;1.40;;
68858;SDS011;55864;49.238;8.092;2022-12-31T02:55:15;3.53;;;1.25;;
68858;SDS011;55864;49.238;8.092;2022-12-31T02:57:25;3.60;;;1.35;;
68858;SDS011;55864;49.238;8.092;2022-12-31T02:59:30;4.80;;;1.55;;
68858;SDS011;55864;49.238;8.092;2022-12-31T03:01:38;5.43;;;1.17;;
68858;SDS011;55864;49.238;8.092;2022-12-31T03:03:42;3.58;;;1.42;;
68858;SDS011;55864;49.238;8.092;2022-12-31T03:05:43;3.15;;;1.20;;
68858;SDS011;55864;49.238;8.092;2022-12-31T03:07:47;3.65;;;1.10;;
68858;SDS011;55864;49.238;8.092;2022-12-31T03:09:48;5.47;;;1.25;;
68858;SDS011;55864;49.238;8.092;2022-12-31T03:11:49;4.35;;;1.48;;
68858;SDS011;55864;49.238;8.092;2022-12-31T03:13:49;3.33;;;1.17;;
68858;SDS011;55864;49.238;8.092;2022-12-31T03:15:50;3.20;;;1.00;;
68858;SDS011;55864;49.238;8.092;2022-12-31T03:17:56;3.08;;;1.20;;
68858;SDS011;55864;49.238;8.092;2022-12-31T03:19:58;4.30;;;1.25;;
68858;SDS011;55864;49.238;8.092;2022-12-31T03:21:58;5.72;;;1.50;;
68858;SDS011;55864;49.238;8.092;2022-12-31T03:23:59;3.95;;;1.10;;
68858;SDS011;55864;49.238;8.092;2022-12-31T03:26:00;2.58;;;1.10;;
68858;SDS011;55864;49.238;8.092;2022-12-31T03:28:02;4.43;;;1.30;;
68858;SDS011;55864;49.238;8.092;2022-12-31T03:30:04;3.78;;;1.17;;
68858;SDS011;55864;49.238;8.092;2022-12-31T03:32:06;5.28;;;1.30;;
68858;SDS011;55864;49.238;8.092;2022-12-31T03:34:08;2.60;;;1.10;;
68858;SDS011;55864;49.238;8.092;2022-12-31T03:36:10;4.07;;;1.27;;
68858;SDS011;55864;49.238;8.092;2022-12-31T03:38:12;3.67;;;1.52;;
68858;SDS011;55864;49.238;8.092;2022-12-31T03:40:14;5.68;;;1.20;;
68858;SDS011;55864;49.238;8.092;2022-12-31T03:42:16;6.38;;;1.20;;
68858;SDS011;55864;49.238;8.092;2022-12-31T03:44:17;3.55;;;1.02;;
68858;SDS011;55864;49.238;8.092;2022-12-31T03:46:18;3.80;;;1.20;;
68858;SDS011;55864;49.238;8.092;2022-12-31T03:48:19;5.97;;;1.58;;
68858;SDS011;55864;49.238;8.092;2022-12-31T03:50:23;3.60;;;1.27;;
68858;SDS011;55864;49.238;8.092;2022-12-31T03:52:25;3.92;;;1.58;;
68858;SDS011;55864;49.238;8.092;2022-12-31T03:54:26;2.65;;;1.27;;
68858;SDS011;55864;49.238;8.092;2022-12-31T03:56:27;2.95;;;1.10;;
68858;SDS011;55864;49.238;8.092;2022-12-31T03:58:28;3.28;;;1.30;;
68858;SDS011;55864;49.238;8.092;2022-12-31T04:00:29;4.35;;;1.30;;
68858;SDS011;55864;49.238;8.092;2022-12-31T04:02:30;3.15;;;1.10;;
68858;SDS011;55864;49.238;8.092;2022-12-31T04:04:31;2.55;;;0.95;;
68858;SDS011;55864;49.238;8.092;2022-12-31T04:06:33;6.18;;;1.30;;
68858;SDS011;55864;49.238;8.092;2022-12-31T04:08:34;2.97;;;1.23;;
68858;SDS011;55864;49.238;8.092;2022-12-31T04:10:36;3.70;;;1.30;;
68858;SDS011;55864;49.238;8.092;2022-12-31T04:12:37;4.88;;;1.15;;
68858;SDS011;55864;49.238;8.092;2022-12-31T04:14:38;3.75;;;1.20;;
68858;SDS011;55864;49.238;8.092;2022-12-31T04:16:38;3.35;;;1.08;;
68858;SDS011;55864;49.238;8.092;2022-12-31T04:18:39;3.80;;;1.05;;
68858;SDS011;55864;49.238;8.092;2022-12-31T04:20:40;3.72;;;1.17;;
68858;SDS011;55864;49.238;8.092;2022-12-31T04:22:41;3.53;;;1.10;;
68858;SDS011;55864;49.238;8.092;2022-12-31T04:24:44;4.07;;;1.30;;
68858;SDS011;55864;49.238;8.092;2022-12-31T04:26:45;3.80;;;1.20;;
68858;SDS011;55864;49.238;8.092;2022-12-31T04:28:45;4.53;;;1.20;;
68858;SDS011;55864;49.238;8.092;2022-12-31T04:30:46;3.45;;;1.00;;
68858;SDS011;55864;49.238;8.092;2022-12-31T04:32:46;3.90;;;1.10;;
68858;SDS011;55864;49.238;8.092;2022-12-31T04:34:47;2.17;;;1.00;;
68858;SDS011;55864;49.238;8.092;2022-12-31T04:36:47;2.88;;;1.40;;
68858;SDS011;55864;49.238;8.092;2022-12-31T04:38:49;3.30;;;1.20;;
68858;SDS011;55864;49.238;8.092;2022-12-31T04:40:50;3.25;;;1.20;;
68858;SDS011;55864;49.238;8.092;2022-12-31T04:42:50;2.70;;;1.10;;
68858;SDS011;55864;49.238;8.092;2022-12-31T04:44:51;3.38;;;0.90;;
68858;SDS011;55864;49.238;8.092;2022-12-31T04:46:51;4.03;;;1.15;;
68858;SDS011;55864;49.238;8.092;2022-12-31T04:48:52;2.15;;;1.05;;
68858;SDS011;55864;49.238;8.092;2022-12-31T04:50:52;2.55;;;1.00;;
68858;SDS011;55864;49.238;8.092;2022-12-31T04:52:53;4.03;;;1.10;;
68858;SDS011;55864;49.238;8.092;2022-12-31T04:54:55;2.35;;;0.90;;
68858;SDS011;55864;49.238;8.092;2022-12-31T04:56:55;3.03;;;1.00;;
68858;SDS011;55864;49.238;8.092;2022-12-31T04:58:56;2.67;;;1.00;;
68858;SDS011;55864;49.238;8.092;2022-12-31T05:00:57;3.97;;;1.10;;
68858;SDS011;55864;49.238;8.092;2022-12-31T05:02:57;2.78;;;0.90;;
68858;SDS011;55864;49.238;8.092;2022-12-31T05:04:58;2.78;;;1.10;;
68858;SDS011;55864;49.238;8.092;2022-12-31T05:06:58;2.45;;;1.08;;
68858;SDS011;55864;49.238;8.092;2022-12-31T05:08:59;2.28;;;0.90;;
68858;SDS011;55864;49.238;8.092;2022-12-31T05:11:02;3.80;;;1.00;;
68858;SDS011;55864;49.238;8.092;2022-12-31T05:13:03;1.88;;;0.88;;
68858;SDS011;55864;49.238;8.092;2022-12-31T05:15:05;2.83;;;1.00;;
68858;SDS011;55864;49.238;8.092;2022-12-31T05:17:06;1.92;;;0.90;;
68858;SDS011;55864;49.238;8.092;2022-12-31T05:19:07;2.67;;;1.10;;
68858;SDS011;55864;49.238;8.092;2022-12-31T05:21:08;2.47;;;0.93;;
68858;SDS011;55864;49.238;8.092;2022-12-31T05:23:14;5.47;;;0.90;;
68858;SDS011;55864;49.238;8.092;2022-12-31T05:25:16;2.75;;;1.10;;
68858;SDS011;55864;49.238;8.092;2022-12-31T05:27:18;3.33;;;1.05;;
68858;SDS011;55864;49.238;8.092;2022-12-31T05:29:18;3.80;;;1.10;;
68858;SDS011;55864;49.238;8.092;2022-12-31T05:31:19;2.97;;;1.20;;
68858;SDS011;55864;49.238;8.092;2022-12-31T05:33:21;3.42;;;1.15;;
68858;SDS011;55864;49.238;8.092;2022-12-31T05:35:22;2.92;;;1.20;;
68858;SDS011;55864;49.238;8.092;2022-12-31T05:37:22;4.75;;;1.10;;
68858;SDS011;55864;49.238;8.092;2022-12-31T05:39:23;3.88;;;1.33;;
68858;SDS011;55864;49.238;8.092;2022-12-31T05:41:24;3.15;;;1.10;;
68858;SDS011;55864;49.238;8.092;2022-12-31T05:43:27;4.28;;;1.20;;
68858;SDS011;55864;49.238;8.092;2022-12-31T05:45:27;5.03;;;1.60;;
68858;SDS011;55864;49.238;8.092;2022-12-31T05:47:28;14.85;;;8.02;;
68858;SDS011;55864;49.238;8.092;2022-12-31T05:49:28;31.10;;;15.65;;
68858;SDS011;55864;49.238;8.092;2022-12-31T05:51:29;12.25;;;5.18;;
68858;SDS011;55864;49.238;8.092;2022-12-31T05:53:29;20.23;;;10.88;;
68858;SDS011;55864;49.238;8.092;2022-12-31T05:55:30;18.67;;;9.52;;
68858;SDS011;55864;49.238;8.092;2022-12-31T05:57:30;14.98;;;7.90;;
68858;SDS011;55864;49.238;8.092;2022-12-31T05:59:33;22.38;;;12.55;;
68858;SDS011;55864;49.238;8.092;2022-12-31T06:01:33;15.52;;;6.72;;
68858;SDS011;55864;49.238;8.092;2022-12-31T06:03:34;11.30;;;6.07;;
68858;SDS011;55864;49.238;8.092;2022-12-31T06:05:37;6.95;;;3.00;;
68858;SDS011;55864;49.238;8.092;2022-12-31T06:07:39;7.30;;;4.47;;
68858;SDS011;55864;49.238;8.092;2022-12-31T06:09:40;5.80;;;2.90;;
68858;SDS011;55864;49.238;8.092;2022-12-31T06:11:41;4.53;;;1.65;;
68858;SDS011;55864;49.238;8.092;2022-12-31T06:13:42;4.47;;;1.80;;
68858;SDS011;55864;49.238;8.092;2022-12-31T06:15:44;3.97;;;1.38;;
68858;SDS011;55864;49.238;8.092;2022-12-31T06:17:45;4.72;;;1.48;;
68858;SDS011;55864;49.238;8.092;2022-12-31T06:19:46;6.18;;;1.40;;
68858;SDS011;55864;49.238;8.092;2022-12-31T06:21:47;4.63;;;1.40;;
68858;SDS011;55864;49.238;8.092;2022-12-31T06:23:48;4.35;;;1.30;;
68858;SDS011;55864;49.238;8.092;2022-12-31T06:25:52;5.30;;;1.40;;
68858;SDS011;55864;49.238;8.092;2022-12-31T06:27:53;3.97;;;1.30;;
68858;SDS011;55864;49.238;8.092;2022-12-31T06:29:54;3.42;;;1.13;;
68858;SDS011;55864;49.238;8.092;2022-12-31T06:31:56;4.00;;;1.40;;
68858;SDS011;55864;49.238;8.092;2022-12-31T06:33:57;4.00;;;1.40;;
68858;SDS011;55864;49.238;8.092;2022-12-31T06:35:59;4.25;;;1.40;;
68858;SDS011;55864;49.238;8.092;2022-12-31T06:38:01;7.28;;;1.50;;
68858;SDS011;55864;49.238;8.092;2022-12-31T06:40:02;4.10;;;1.40;;
68858;SDS011;55864;49.238;8.092;2022-12-31T06:42:04;5.55;;;1.30;;
68858;SDS011;55864;49.238;8.092;2022-12-31T06:44:05;4.22;;;1.50;;
68858;SDS011;55864;49.238;8.092;2022-12-31T06:46:07;4.57;;;1.30;;
68858;SDS011;55864;49.238;8.092;2022-12-31T06:48:11;4.30;;;1.40;;
68858;SDS011;55864;49.238;8.092;2022-12-31T06:50:12;5.30;;;1.65;;
68858;SDS011;55864;49.238;8.092;2022-12-31T06:52:13;4.75;;;1.40;;
68858;SDS011;55864;49.238;8.092;2022-12-31T06:54:14;3.40;;;1.15;;
68858;SDS011;55864;49.238;8.092;2022-12-31T06:56:16;3.25;;;1.20;;
68858;SDS011;55864;49.238;8.092;2022-12-31T06:58:19;2.60;;;1.20;;
68858;SDS011;55864;49.238;8.092;2022-12-31T07:00:20;3.35;;;1.20;;
68858;SDS011;55864;49.238;8.092;2022-12-31T07:02:29;4.05;;;1.20;;
68858;SDS011;55864;49.238;8.092;2022-12-31T07:04:59;2.70;;;1.20;;
68858;SDS011;55864;49.238;8.092;2022-12-31T07:07:28;2.92;;;1.05;;
68858;SDS011;55864;49.238;8.092;2022-12-31T07:09:35;4.53;;;1.65;;
68858;SDS011;55864;49.238;8.092;2022-12-31T07:11:45;12.38;;;3.35;;
68858;SDS011;55864;49.238;8.092;2022-12-31T07:13:58;4.60;;;1.58;;
68858;SDS011;55864;49.238;8.092;2022-12-31T07:16:09;7.18;;;1.90;;
68858;SDS011;55864;49.238;8.092;2022-12-31T07:18:22;4.35;;;1.60;;
68858;SDS011;55864;49.238;8.092;2022-12-31T07:20:34;3.75;;;1.40;;
68858;SDS011;55864;49.238;8.092;2022-12-31T07:22:35;4.28;;;1.75;;
68858;SDS011;55864;49.238;8.092;2022-12-31T07:24:36;5.07;;;1.73;;
68858;SDS011;55864;49.238;8.092;2022-12-31T07:26:46;4.50;;;1.98;;
68858;SDS011;55864;49.238;8.092;2022-12-31T07:29:03;4.53;;;1.45;;
68858;SDS011;55864;49.238;8.092;2022-12-31T07:31:13;3.78;;;1.50;;
68858;SDS011;55864;49.238;8.092;2022-12-31T07:33:26;5.45;;;1.60;;
68858;SDS011;55864;49.238;8.092;2022-12-31T07:35:40;8.63;;;3.47;;
68858;SDS011;55864;49.238;8.092;2022-12-31T07:37:50;4.78;;;1.60;;
68858;SDS011;55864;49.238;8.092;2022-12-31T07:40:01;7.00;;;2.17;;
68858;SDS011;55864;49.238;8.092;2022-12-31T07:42:08;5.60;;;1.60;;
68858;SDS011;55864;49.238;8.092;2022-12-31T07:44:18;6.75;;;1.80;;
68858;SDS011;55864;49.238;8.092;2022-12-31T07:46:30;5.78;;;2.05;;
68858;SDS011;55864;49.238;8.092;2022-12-31T07:48:38;4.53;;;1.83;;
68858;SDS011;55864;49.238;8.092;2022-12-31T07:50:40;5.70;;;1.50;;
68858;SDS011;55864;49.238;8.092;2022-12-31T07:52:41;6.82;;;1.80;;
68858;SDS011;55864;49.238;8.092;2022-12-31T07:54:43;4.45;;;1.70;;
68858;SDS011;55864;49.238;8.092;2022-12-31T07:56:43;5.38;;;1.75;;
68858;SDS011;55864;49.238;8.092;2022-12-31T07:58:51;5.28;;;1.70;;
68858;SDS011;55864;49.238;8.092;2022-12-31T08:00:59;4.97;;;1.50;;
68858;SDS011;55864;49.238;8.092;2022-12-31T08:03:04;4.47;;;1.60;;
68858;SDS011;55864;49.238;8.092;2022-12-31T08:05:12;7.10;;;2.97;;
68858;SDS011;55864;49.238;8.092;2022-12-31T08:07:24;6.38;;;2.47;;
68858;SDS011;55864;49.238;8.092;2022-12-31T08:09:38;6.32;;;1.50;;
68858;SDS011;55864;49.238;8.092;2022-12-31T08:11:46;4.15;;;1.50;;
68858;SDS011;55864;49.238;8.092;2022-12-31T08:13:54;5.18;;;1.55;;
68858;SDS011;55864;49.238;8.092;2022-12-31T08:15:59;5.25;;;1.83;;
68858;SDS011;55864;49.238;8.092;2022-12-31T08:18:02;6.35;;;1.90;;
68858;SDS011;55864;49.238;8.092;2022-12-31T08:20:03;6.20;;;1.95;;
68858;SDS011;55864;49.238;8.092;2022-12-31T08:22:07;5.45;;;1.90;;
68858;SDS011;55864;49.238;8.092;2022-12-31T08:24:23;6.60;;;1.80;;
68858;SDS011;55864;49.238;8.092;2022-12-31T08:26:34;5.03;;;1.90;;
68858;SDS011;55864;49.238;8.092;2022-12-31T08:28:45;5.55;;;1.90;;
68858;SDS011;55864;49.238;8.092;2022-12-31T08:31:00;4.43;;;1.60;;
68858;SDS011;55864;49.238;8.092;2022-12-31T08:33:06;4.78;;;1.75;;
68858;SDS011;55864;49.238;8.092;2022-12-31T08:35:15;5.72;;;1.98;;
68858;SDS011;55864;49.238;8.092;2022-12-31T08:37:25;5.95;;;1.77;;
68858;SDS011;55864;49.238;8.092;2022-12-31T08:39:39;4.93;;;1.75;;
68858;SDS011;55864;49.238;8.092;2022-12-31T08:41:52;4.55;;;1.80;;
68858;SDS011;55864;49.238;8.092;2022-12-31T08:44:00;5.72;;;1.80;;
68858;SDS011;55864;49.238;8.092;2022-12-31T08:46:12;4.53;;;1.60;;
68858;SDS011;55864;49.238;8.092;2022-12-31T08:48:19;4.47;;;1.90;;
68858;SDS011;55864;49.238;8.092;2022-12-31T08:50:26;6.50;;;1.70;;
68858;SDS011;55864;49.238;8.092;2022-12-31T08:52:28;6.03;;;1.88;;
68858;SDS011;55864;49.238;8.092;2022-12-31T08:54:29;5.80;;;1.70;;
68858;SDS011;55864;49.238;8.092;2022-12-31T08:56:32;5.40;;;1.90;;
68858;SDS011;55864;49.238;8.092;2022-12-31T08:58:41;5.60;;;1.95;;
68858;SDS011;55864;49.238;8.092;2022-12-31T09:00:49;6.05;;;1.65;;
68858;SDS011;55864;49.238;8.092;2022-12-31T09:03:01;5.35;;;1.80;;
68858;SDS011;55864;49.238;8.092;2022-12-31T09:05:16;5.30;;;1.90;;
68858;SDS011;55864;49.238;8.092;2022-12-31T09:07:22;5.90;;;1.85;;
68858;SDS011;55864;49.238;8.092;2022-12-31T09:09:33;9.57;;;2.30;;
68858;SDS011;55864;49.238;8.092;2022-12-31T09:11:47;5.93;;;1.83;;
68858;SDS011;55864;49.238;8.092;2022-12-31T09:13:59;7.55;;;2.80;;
68858;SDS011;55864;49.238;8.092;2022-12-31T09:16:11;6.63;;;2.20;;
68858;SDS011;55864;49.238;8.092;2022-12-31T09:18:17;5.22;;;2.00;;
68858;SDS011;55864;49.238;8.092;2022-12-31T09:20:21;11.90;;;4.30;;
68858;SDS011;55864;49.238;8.092;2022-12-31T09:22:23;14.00;;;5.07;;
68858;SDS011;55864;49.238;8.092;2022-12-31T09:24:25;6.22;;;2.60;;
68858;SDS011;55864;49.238;8.092;2022-12-31T09:26:31;5.72;;;2.10;;
68858;SDS011;55864;49.238;8.092;2022-12-31T09:28:44;7.93;;;3.50;;
68858;SDS011;55864;49.238;8.092;2022-12-31T09:30:53;7.90;;;2.50;;
68858;SDS011;55864;49.238;8.092;2022-12-31T09:33:00;6.25;;;2.17;;
68858;SDS011;55864;49.238;8.092;2022-12-31T09:35:09;6.88;;;1.65;;
68858;SDS011;55864;49.238;8.092;2022-12-31T09:37:19;7.22;;;2.22;;
68858;SDS011;55864;49.238;8.092;2022-12-31T09:39:31;5.63;;;2.45;;
68858;SDS011;55864;49.238;8.092;2022-12-31T09:41:57;6.40;;;2.53;;
68858;SDS011;55864;49.238;8.092;2022-12-31T09:52:13;5.65;;;1.90;;
68858;SDS011;55864;49.238;8.092;2022-12-31T09:54:28;4.68;;;1.95;;
68858;SDS011;55864;49.238;8.092;2022-12-31T09:56:41;5.38;;;1.60;;
68858;SDS011;55864;49.238;8.092;2022-12-31T09:58:48;5.53;;;1.60;;
68858;SDS011;55864;49.238;8.092;2022-12-31T10:01:00;6.95;;;1.98;;
68858;SDS011;55864;49.238;8.092;2022-12-31T10:03:11;5.45;;;1.98;;
68858;SDS011;55864;49.238;8.092;2022-12-31T10:05:49;4.20;;;1.40;;
68858;SDS011;55864;49.238;8.092;2022-12-31T10:07:57;4.65;;;1.38;;
68858;SDS011;55864;49.238;8.092;2022-12-31T10:10:06;4.00;;;1.67;;
68858;SDS011;55864;49.238;8.092;2022-12-31T10:12:26;4.95;;;1.80;;
68858;SDS011;55864;49.238;8.092;2022-12-31T10:14:57;4.85;;;1.60;;
68858;SDS011;55864;49.238;8.092;2022-12-31T10:17:15;7.32;;;1.80;;
68858;SDS011;55864;49.238;8.092;2022-12-31T10:19:39;5.72;;;2.13;;
68858;SDS011;55864;49.238;8.092;2022-12-31T10:21:53;6.85;;;1.80;;
68858;SDS011;55864;49.238;8.092;2022-12-31T10:24:13;7.38;;;1.70;;
68858;SDS011;55864;49.238;8.092;2022-12-31T10:26:36;4.53;;;1.52;;
68858;SDS011;55864;49.238;8.092;2022-12-31T10:28:52;3.95;;;1.45;;
68858;SDS011;55864;49.238;8.092;2022-12-31T10:30:56;6.00;;;1.40;;
68858;SDS011;55864;49.238;8.092;2022-12-31T10:33:11;7.70;;;2.17;;
68858;SDS011;55864;49.238;8.092;2022-12-31T10:35:23;4.45;;;1.45;;
68858;SDS011;55864;49.238;8.092;2022-12-31T10:37:28;5.63;;;1.50;;
68858;SDS011;55864;49.238;8.092;2022-12-31T10:39:39;4.40;;;1.40;;
68858;SDS011;55864;49.238;8.092;2022-12-31T10:47:37;24.90;;;9.60;;
68858;SDS011;55864;49.238;8.092;2022-12-31T10:50:18;36.53;;;16.15;;
68858;SDS011;55864;49.238;8.092;2022-12-31T10:55:28;5.18;;;1.73;;
68858;SDS011;55864;49.238;8.092;2022-12-31T10:57:45;9.40;;;4.10;;
68858;SDS011;55864;49.238;8.092;2022-12-31T11:02:37;6.07;;;2.15;;
68858;SDS011;55864;49.238;8.092;2022-12-31T11:05:05;5.07;;;1.70;;
68858;SDS011;55864;49.238;8.092;2022-12-31T11:07:31;4.63;;;1.48;;
68858;SDS011;55864;49.238;8.092;2022-12-31T11:12:21;4.43;;;1.30;;
68858;SDS011;55864;49.238;8.092;2022-12-31T11:14:48;3.25;;;1.30;;
68858;SDS011;55864;49.238;8.092;2022-12-31T11:17:14;6.63;;;1.83;;
68858;SDS011;55864;49.238;8.092;2022-12-31T11:19:27;4.53;;;1.40;;
68858;SDS011;55864;49.238;8.092;2022-12-31T11:21:46;4.45;;;1.27;;
68858;SDS011;55864;49.238;8.092;2022-12-31T11:24:00;3.30;;;1.38;;
68858;SDS011;55864;49.238;8.092;2022-12-31T11:26:07;7.82;;;2.53;;
68858;SDS011;55864;49.238;8.092;2022-12-31T11:28:21;5.65;;;1.60;;
68858;SDS011;55864;49.238;8.092;2022-12-31T11:30:41;4.93;;;1.80;;
68858;SDS011;55864;49.238;8.092;2022-12-31T11:33:02;3.90;;;1.50;;
68858;SDS011;55864;49.238;8.092;2022-12-31T11:35:22;4.00;;;1.50;;
68858;SDS011;55864;49.238;8.092;2022-12-31T11:37:35;4.45;;;1.60;;
68858;SDS011;55864;49.238;8.092;2022-12-31T11:39:47;5.30;;;1.85;;
68858;SDS011;55864;49.238;8.092;2022-12-31T11:41:54;4.68;;;1.33;;
68858;SDS011;55864;49.238;8.092;2022-12-31T11:44:05;4.38;;;1.38;;
68858;SDS011;55864;49.238;8.092;2022-12-31T11:48:52;3.90;;;1.40;;
68858;SDS011;55864;49.238;8.092;2022-12-31T11:51:05;8.00;;;1.80;;
68858;SDS011;55864;49.238;8.092;2022-12-31T11:53:26;6.35;;;1.98;;
68858;SDS011;55864;49.238;8.092;2022-12-31T11:55:44;12.60;;;2.10;;
68858;SDS011;55864;49.238;8.092;2022-12-31T11:57:52;6.15;;;1.40;;
68858;SDS011;55864;49.238;8.092;2022-12-31T11:59:55;4.05;;;1.20;;
68858;SDS011;55864;49.238;8.092;2022-12-31T12:01:58;4.60;;;1.30;;
68858;SDS011;55864;49.238;8.092;2022-12-31T12:04:03;4.78;;;1.40;;
68858;SDS011;55864;49.238;8.092;2022-12-31T12:06:04;3.92;;;1.23;;
68858;SDS011;55864;49.238;8.092;2022-12-31T12:08:04;3.58;;;1.40;;
68858;SDS011;55864;49.238;8.092;2022-12-31T12:10:13;4.68;;;1.60;;
68858;SDS011;55864;49.238;8.092;2022-12-31T12:12:19;5.95;;;1.58;;
68858;SDS011;55864;49.238;8.092;2022-12-31T12:14:21;4.15;;;1.20;;
68858;SDS011;55864;49.238;8.092;2022-12-31T12:16:28;5.00;;;1.40;;
68858;SDS011;55864;49.238;8.092;2022-12-31T12:18:33;4.30;;;1.30;;
68858;SDS011;55864;49.238;8.092;2022-12-31T12:20:39;4.85;;;1.40;;
68858;SDS011;55864;49.238;8.092;2022-12-31T12:22:46;3.88;;;1.20;;
68858;SDS011;55864;49.238;8.092;2022-12-31T12:24:50;4.75;;;1.38;;
68858;SDS011;55864;49.238;8.092;2022-12-31T12:26:53;3.85;;;1.25;;
68858;SDS011;55864;49.238;8.092;2022-12-31T12:28:58;4.47;;;1.40;;
68858;SDS011;55864;49.238;8.092;2022-12-31T12:31:01;2.95;;;1.13;;
68858;SDS011;55864;49.238;8.092;2022-12-31T12:33:03;3.92;;;1.25;;
68858;SDS011;55864;49.238;8.092;2022-12-31T12:35:14;3.40;;;1.20;;
68858;SDS011;55864;49.238;8.092;2022-12-31T12:37:26;3.80;;;1.20;;
68858;SDS011;55864;49.238;8.092;2022-12-31T12:39:29;4.60;;;1.45;;
68858;SDS011;55864;49.238;8.092;2022-12-31T12:41:30;3.10;;;1.20;;
68858;SDS011;55864;49.238;8.092;2022-12-31T12:43:32;4.35;;;1.30;;
68858;SDS011;55864;49.238;8.092;2022-12-31T12:45:37;4.30;;;1.38;;
68858;SDS011;55864;49.238;8.092;2022-12-31T12:47:44;4.53;;;1.40;;
68858;SDS011;55864;49.238;8.092;2022-12-31T12:49:47;2.70;;;1.20;;
68858;SDS011;55864;49.238;8.092;2022-12-31T12:52:04;4.75;;;1.83;;
68858;SDS011;55864;49.238;8.092;2022-12-31T12:54:18;4.57;;;1.40;;
68858;SDS011;55864;49.238;8.092;2022-12-31T12:56:35;3.97;;;1.13;;
68858;SDS011;55864;49.238;8.092;2022-12-31T12:58:45;6.78;;;1.40;;
68858;SDS011;55864;49.238;8.092;2022-12-31T13:00:55;3.65;;;1.20;;
68858;SDS011;55864;49.238;8.092;2022-12-31T13:03:10;4.30;;;1.20;;
68858;SDS011;55864;49.238;8.092;2022-12-31T13:05:24;4.10;;;1.23;;